메인 페이지
METAR-TAF:

METAR-TAF

공항 :

오타와 맥도널드 카르티에 국제공항

오타와, 온타리오, 캐나다

위도: 45-19N, 경도: 075-40W, 고도: 116m

현재 날씨관측

예보는 28분 전, 17:00시(UTC)에 발표되었습니다.
북동8kt
온도 3°C
습도 100%
기압 996 hPa
시정: 3.2km
고도 200ft 상공 흐림
약한이슬비, 박무

METAR: CYOW 141700Z 04008KT 2SM -DZ BR OVC002 03/03 A2940 RMK ST8 SLP963

시각: 12:28 (17:28 UTC)

예보

예보는 2 시간 50분 전, 14:38시(UTC)에 발표되었습니다.
예보 대상 시간: 14일 15시부터 15일 12시까지 (UTC)
북동12kt
시정: 4.8km
고도 300ft 상공 흐림
약한비, 박무
일시적
14일 15시부터 14일 22시까지 (UTC)
시정: 9.7km
고도 500ft 상공 흐림
약한이슬비, 박무
14일 2200시부터 (UTC)
북서10kt, 순간 최대 풍속 20kt
시정: 3.2km
고도 800ft 상공 흐림
소나기, 박무
15일 0200시부터 (UTC)
서북서10kt, 순간 최대 풍속 20kt
시정: 4.8km
고도 800ft 상공 흐림
약한소나기, 박무
15일 0400시부터 (UTC)
서북서10kt, 순간 최대 풍속 20kt
시정: 4.8km
고도 1000ft 상공 흐림
약한눈, 비, 박무
15일 0600시부터 (UTC)
18kt, 순간 최대 풍속 28kt
고도 1200ft 상공 흐림
약한소낙눈
15일 0900시부터 (UTC)
18kt, 순간 최대 풍속 28kt
시정: 10km
고도 2000ft 상공 흐림
약한눈

TAF: CYOW 141438Z 1415/1512 05012KT 3SM -RA BR OVC003 TEMPO 1415/1422 6SM -DZ BR OVC005 FM142200 32010G20KT 2SM SHRA BR OVC008 FM150200 30010G20KT 3SM -SHRA BR OVC008 FM150400 29010G20KT 3SM -SNRA BR OVC010 FM150600 28018G28KT 21/2SM -SHSN OVC012 FM150900 28018G28KT P6SM -SN OVC020 RMK NXT FCST BY 141800Z

4,000개 이상의 공항 관측 자료 및 예보 (METAR 및 TAF 보고).

지도상에서 검색 가능한 기상관측소가 노란 점과 빨간 점으로 표시되어 있습니다.

기상관측소 명을 보려면 표시 위로 마우스를 이동하세요.

날씨 관측과 예보를 보려면 클릭하세요.

지도 변경 : 확대하려면 엑스 표시가 있는 녹색 버튼, 축소하려면 빼기 표시가 있는 녹색 버튼, 다음 페이지의 지도를 보려면 녹색 화살표를 클릭하세요.


METAR-TAF: